Kenockee Township, Michigan
Current Conditions -  °F | °C
As of 11:36 AM on Friday 24 Oct 2014 (Local Time) from KPHN Reporting Station
Clear Clear  
Wind Chill: 54°   Ceiling: Unl
Heat Index: 54°   Visibility: 10mi
Dew Point: 46°   Wind: 5mph
Humidity: 77%   Direction: 230°SW
Pressure: 30.06"   Gusts: NA
Location:  43.076°N, 82.6968°W
Report Text: KPHN 241536Z AUTO 23004KT 10SM CLR 12/08 A3006 RMK AO2
Loading
Personal Weather Stations






























Interactive Weather Map
Tropical Storm Tracking
New forecast layout! Learn more

10-Day Weather Forecast

Advertisements
Track Severe Weather on mobile